Hlavní strana
METAR-TAF:

METAR-TAF

Letiště :

Moskva, Rusko

zeměpisná šířka: 55-30-42N, zeměpisná délka: 037-30-26E, výška: 173 m

Aktuální stav počasí

Zpráva byla vytvořena před 50 minutami, v 03:00 UTC
Jihozápadní vítr 4 kt, proměnlivý mezi jižním a západním
Teplota 2°C
Vlhkost vzduchu 100%
Tlak 1028 hPa
Viditelnost: 3500 m
Zataženo ve výšce 200 ft
kouřmo

METAR: UUMO 180300Z 22002MPS 190V260 3500 BR OVC002 02/02 Q1028 R26/190055 NOSIG RMK QBB080 QFE755/1007

Čas: 06:50 (03:50 UTC)

Předpověď počasí

Zpráva byla vytvořena před 1 hodinou a 58 minutami, v 01:52 UTC
Předpověď platná od 18 v 03 UTC do 18 v 12 UTC
Jižní vítr 4 kt
Viditelnost: 3000 m
Zataženo ve výšce 400 ft
kouřmo
Dočasný
od 18 v 03 UTC do 18 v 06 UTC
Viditelnost: 0500 m
ve výšce 200 ft
mlha

TAF: UUMO 180152Z 1803/1812 19002MPS 3000 BR OVC004 TEMPO 1803/1806 0500 FG VV002

Stav a předpovědi počasí z více než 4 000 letišť (zprávy METAR a TAF).

Červené a žluté tečky na mapě představují dostupné meteorologické stanice.

Když kurzor umístíte na tečku, zobrazí se název stanice.

Pak kliknutím zobrazíte stav a předpověď počasí.

Chcete-li změnit mapu, kliknutím na zelené tlačítko se znaménkem +mapu přiblížíte, kliknutím na zelené tlačítko se znaménkem – mapu oddálíte a kliknutím na zelené šipky přejdete na sousední mapy.


METAR-TAF: